Arikun — 3EKY2 — position and weather

sailwx.info

Track history (hours):
 
Tides and Currents Weather Stations Pressure Air Temp Water Temp Dewpoint Dewpoint Depression Visibility Wind Speed Wind Dir Waves Ship Positions

Arikun

Last reported at 2017-Sep-21 09:22 UTC. Time now 2017-Oct-17 09:58 UTC.
Position N 22°52' E 117°32'.
Warning: this ship's position is 26 days out of date.

Length 112 m; draft 7.5 m.

Type: Cargo ship. MMSI: 372870000.

Date/timePositionNaut miles runAvg speedWind from/ knotsBaromVisibWave heightAir tempDewpointWater temp
2017-Sep-21 09:22N 22°52' E 117°32'17111.1
2017-Sep-20 17:59N 24°54' E 119°44'12 9.8
2017-Sep-20 16:49N 25°05' E 119°48'2010.0
2017-Sep-20 14:51N 25°19' E 119°33'7 8.5
2017-Sep-20 14:00N 25°21' E 119°25'4 8.6
2017-Sep-20 13:30N 25°23' E 119°21'4 8.0
2017-Sep-20 12:59N 25°25' E 119°17'0 0.4
2017-Sep-20 12:30N 25°25' E 119°17'0 0.0
2017-Sep-20 12:00N 25°25' E 119°17'0 0.0
2017-Sep-20 11:18N 25°25' E 119°17'0 0.0
2017-Sep-20 10:18N 25°25' E 119°17'0 0.0
2017-Sep-20 09:42N 25°25' E 119°17'0 0.0
2017-Sep-20 09:30N 25°25' E 119°17'0 0.0
2017-Sep-20 08:54N 25°25' E 119°17'0 0.0
2017-Sep-20 08:18N 25°25' E 119°17'0 0.0
2017-Sep-20 08:00N 25°25' E 119°17'0 0.0
2017-Sep-20 07:30N 25°25' E 119°17'0 0.0
2017-Sep-20 06:48N 25°25' E 119°17'0 0.0
2017-Sep-20 06:30N 25°25' E 119°17'0 0.1
2017-Sep-20 05:54N 25°25' E 119°17'0 0.0
2017-Sep-20 05:12N 25°25' E 119°17'0 0.3
2017-Sep-20 05:00N 25°25' E 119°17'0 0.0
2017-Sep-20 04:24N 25°25' E 119°17'0 0.0
2017-Sep-20 04:00N 25°25' E 119°17'0 0.0
2017-Sep-20 03:30N 25°25' E 119°17'0 0.0
2017-Sep-20 02:54N 25°25' E 119°17'0 0.0
2017-Sep-20 02:30N 25°25' E 119°17'0 0.0
2017-Sep-20 02:00N 25°25' E 119°17'0 0.0
2017-Sep-20 01:24N 25°25' E 119°17'0 0.0
2017-Sep-20 01:00N 25°25' E 119°17'0 0.0
2017-Sep-20 00:30N 25°25' E 119°17'0 0.0
2017-Sep-19 23:18N 25°25' E 119°17'0 0.0
2017-Sep-19 22:42N 25°25' E 119°17'0 0.0
2017-Sep-19 22:24N 25°25' E 119°17'0 0.0
2017-Sep-19 21:54N 25°25' E 119°17'0 0.0
2017-Sep-19 21:30N 25°25' E 119°17'0 0.0
2017-Sep-19 21:00N 25°25' E 119°17'0 0.0
2017-Sep-19 20:30N 25°25' E 119°17'0 0.0
2017-Sep-19 20:00N 25°25' E 119°17'0 0.0
2017-Sep-19 19:24N 25°25' E 119°17'0 0.0
2017-Sep-19 18:24N 25°25' E 119°17'0 0.0
2017-Sep-19 17:54N 25°25' E 119°17'0 0.0
2017-Sep-19 17:30N 25°25' E 119°17'0 0.0
2017-Sep-19 16:54N 25°25' E 119°17'0 0.0
2017-Sep-19 16:30N 25°25' E 119°17'0 0.0
2017-Sep-19 16:00N 25°25' E 119°17'0 0.1
2017-Sep-19 15:30N 25°25' E 119°17'0 0.1
2017-Sep-19 14:48N 25°25' E 119°17'0 0.0
2017-Sep-19 14:30N 25°25' E 119°17'0 0.0
2017-Sep-19 13:54N 25°25' E 119°17'0 0.0
2017-Sep-19 13:30N 25°25' E 119°17'0 0.0
2017-Sep-19 13:00N 25°25' E 119°17'0 0.0
2017-Sep-19 12:06N 25°25' E 119°17'0 0.0
2017-Sep-19 11:54N 25°25' E 119°17'0 0.0
2017-Sep-19 10:36N 25°25' E 119°17'0 0.0
2017-Sep-19 10:30N 25°25' E 119°17'0 0.0
2017-Sep-19 08:54N 25°25' E 119°17'0 0.0
2017-Sep-19 08:30N 25°25' E 119°17'0 0.1
2017-Sep-19 08:00N 25°25' E 119°17'0 0.1
2017-Sep-19 07:30N 25°25' E 119°17'0 0.0
2017-Sep-19 06:48N 25°25' E 119°17'0 0.0
2017-Sep-19 06:24N 25°25' E 119°17'0 0.1
2017-Sep-19 05:48N 25°25' E 119°17'0 0.2
2017-Sep-19 05:30N 25°25' E 119°17'0 0.0
2017-Sep-19 05:00N 25°25' E 119°17'0 0.8
2017-Sep-19 04:30N 25°25' E 119°17'3 6.8
2017-Sep-19 04:00N 25°23' E 119°20'611.6
2017-Sep-19 03:30N 25°20' E 119°26'41 6.3
2017-Sep-18 20:59N 24°41' E 119°12'912.6
2017-Sep-18 20:18N 24°35' E 119°04'2911.9
2017-Sep-18 17:49N 24°17' E 118°40'411.3
2017-Sep-18 17:26N 24°14' E 118°36'1210.9
2017-Sep-18 16:21N 24°05' E 118°27'510.9
2017-Sep-18 15:56N 24°02' E 118°23'511.1
2017-Sep-18 15:29N 23°59' E 118°19'4211.3
2017-Sep-18 11:46N 23°31' E 117°45'3 9.6
2017-Sep-18 11:28N 23°29' E 117°43'  
Track history (hours):
 
Tides and Currents Weather Stations Pressure Air Temp Water Temp Dewpoint Dewpoint Depression Visibility Wind Speed Wind Dir Waves Ship Positions

Arikun

Last reported at 2017-Sep-21 09:22 UTC. Time now 2017-Oct-17 09:58 UTC.
Position N 22°52' E 117°32'.
Warning: this ship's position is 26 days out of date.

Length 112 m; draft 7.5 m.

Type: Cargo ship. MMSI: 372870000.

Date/timePositionNaut miles runAvg speedWind from/ knotsBaromVisibWave heightAir tempDewpointWater temp
2017-Sep-21 09:22N 22°52' E 117°32'17111.1
2017-Sep-20 17:59N 24°54' E 119°44'12 9.8
2017-Sep-20 16:49N 25°05' E 119°48'2010.0
2017-Sep-20 14:51N 25°19' E 119°33'7 8.5
2017-Sep-20 14:00N 25°21' E 119°25'4 8.6
2017-Sep-20 13:30N 25°23' E 119°21'4 8.0
2017-Sep-20 12:59N 25°25' E 119°17'0 0.4
2017-Sep-20 12:30N 25°25' E 119°17'0 0.0
2017-Sep-20 12:00N 25°25' E 119°17'0 0.0
2017-Sep-20 11:18N 25°25' E 119°17'0 0.0
2017-Sep-20 10:18N 25°25' E 119°17'0 0.0
2017-Sep-20 09:42N 25°25' E 119°17'0 0.0
2017-Sep-20 09:30N 25°25' E 119°17'0 0.0
2017-Sep-20 08:54N 25°25' E 119°17'0 0.0
2017-Sep-20 08:18N 25°25' E 119°17'0 0.0
2017-Sep-20 08:00N 25°25' E 119°17'0 0.0
2017-Sep-20 07:30N 25°25' E 119°17'0 0.0
2017-Sep-20 06:48N 25°25' E 119°17'0 0.0
2017-Sep-20 06:30N 25°25' E 119°17'0 0.1
2017-Sep-20 05:54N 25°25' E 119°17'0 0.0
2017-Sep-20 05:12N 25°25' E 119°17'0 0.3
2017-Sep-20 05:00N 25°25' E 119°17'0 0.0
2017-Sep-20 04:24N 25°25' E 119°17'0 0.0
2017-Sep-20 04:00N 25°25' E 119°17'0 0.0
2017-Sep-20 03:30N 25°25' E 119°17'0 0.0
2017-Sep-20 02:54N 25°25' E 119°17'0 0.0
2017-Sep-20 02:30N 25°25' E 119°17'0 0.0
2017-Sep-20 02:00N 25°25' E 119°17'0 0.0
2017-Sep-20 01:24N 25°25' E 119°17'0 0.0
2017-Sep-20 01:00N 25°25' E 119°17'0 0.0
2017-Sep-20 00:30N 25°25' E 119°17'0 0.0
2017-Sep-19 23:18N 25°25' E 119°17'0 0.0
2017-Sep-19 22:42N 25°25' E 119°17'0 0.0
2017-Sep-19 22:24N 25°25' E 119°17'0 0.0
2017-Sep-19 21:54N 25°25' E 119°17'0 0.0
2017-Sep-19 21:30N 25°25' E 119°17'0 0.0
2017-Sep-19 21:00N 25°25' E 119°17'0 0.0
2017-Sep-19 20:30N 25°25' E 119°17'0 0.0
2017-Sep-19 20:00N 25°25' E 119°17'0 0.0
2017-Sep-19 19:24N 25°25' E 119°17'0 0.0
2017-Sep-19 18:24N 25°25' E 119°17'0 0.0
2017-Sep-19 17:54N 25°25' E 119°17'0 0.0
2017-Sep-19 17:30N 25°25' E 119°17'0 0.0
2017-Sep-19 16:54N 25°25' E 119°17'0 0.0
2017-Sep-19 16:30N 25°25' E 119°17'0 0.0
2017-Sep-19 16:00N 25°25' E 119°17'0 0.1
2017-Sep-19 15:30N 25°25' E 119°17'0 0.1
2017-Sep-19 14:48N 25°25' E 119°17'0 0.0
2017-Sep-19 14:30N 25°25' E 119°17'0 0.0
2017-Sep-19 13:54N 25°25' E 119°17'0 0.0
2017-Sep-19 13:30N 25°25' E 119°17'0 0.0
2017-Sep-19 13:00N 25°25' E 119°17'0 0.0
2017-Sep-19 12:06N 25°25' E 119°17'0 0.0
2017-Sep-19 11:54N 25°25' E 119°17'0 0.0
2017-Sep-19 10:36N 25°25' E 119°17'0 0.0
2017-Sep-19 10:30N 25°25' E 119°17'0 0.0
2017-Sep-19 08:54N 25°25' E 119°17'0 0.0
2017-Sep-19 08:30N 25°25' E 119°17'0 0.1
2017-Sep-19 08:00N 25°25' E 119°17'0 0.1
2017-Sep-19 07:30N 25°25' E 119°17'0 0.0
2017-Sep-19 06:48N 25°25' E 119°17'0 0.0
2017-Sep-19 06:24N 25°25' E 119°17'0 0.1
2017-Sep-19 05:48N 25°25' E 119°17'0 0.2
2017-Sep-19 05:30N 25°25' E 119°17'0 0.0
2017-Sep-19 05:00N 25°25' E 119°17'0 0.8
2017-Sep-19 04:30N 25°25' E 119°17'3 6.8
2017-Sep-19 04:00N 25°23' E 119°20'611.6
2017-Sep-19 03:30N 25°20' E 119°26'41 6.3
2017-Sep-18 20:59N 24°41' E 119°12'912.6
2017-Sep-18 20:18N 24°35' E 119°04'2911.9
2017-Sep-18 17:49N 24°17' E 118°40'411.3
2017-Sep-18 17:26N 24°14' E 118°36'1210.9
2017-Sep-18 16:21N 24°05' E 118°27'510.9
2017-Sep-18 15:56N 24°02' E 118°23'511.1
2017-Sep-18 15:29N 23°59' E 118°19'4211.3
2017-Sep-18 11:46N 23°31' E 117°45'3 9.6
2017-Sep-18 11:28N 23°29' E 117°43'  

Dump ship's entire track history